Cap-des-Rosiers, Canada
Current Conditions -  °F | °C
As of 5:00 AM on Monday 20 Oct 2014 (Local Time) from CYGP Reporting Station
Broken Clouds Broken Clouds  
Wind Chill: 33°   Ceiling: 3500
Heat Index: 39°   Visibility: 15mi
Dew Point: 32°   Wind: 9mph
Humidity: 75%   Direction: 270°W
Pressure: 29.52"   Gusts: NA
Location:  48.86°N, 64.23°W
Report Text: CYGP 200900Z 27008KT 15SM BKN035 04/M00 A2952 RMK SC6 SLP996
Loading
Personal Weather Stations






























Interactive Weather Map
Tropical Storm Tracking
New forecast layout! Learn more

10-Day Weather Forecast

Advertisements
Track Severe Weather on mobile